sensor_id;sensor_type;location;lat;lon;timestamp;P1;durP1;ratioP1;P2;durP2;ratioP2
28934;SDS011;16044;52.726;-2.108;2024-01-30T00:00:50;34.33;;;10.15;;
28934;SDS011;16044;52.726;-2.108;2024-01-30T00:03:20;33.05;;;10.25;;
28934;SDS011;16044;52.726;-2.108;2024-01-30T00:05:53;35.80;;;10.25;;
28934;SDS011;16044;52.726;-2.108;2024-01-30T00:08:25;35.30;;;10.00;;
28934;SDS011;16044;52.726;-2.108;2024-01-30T00:10:56;43.58;;;10.32;;
28934;SDS011;16044;52.726;-2.108;2024-01-30T00:13:27;32.13;;;9.07;;
28934;SDS011;16044;52.726;-2.108;2024-01-30T00:15:57;38.60;;;10.13;;
28934;SDS011;16044;52.726;-2.108;2024-01-30T00:18:28;37.22;;;10.15;;
28934;SDS011;16044;52.726;-2.108;2024-01-30T00:21:01;30.48;;;9.77;;
28934;SDS011;16044;52.726;-2.108;2024-01-30T00:23:31;37.10;;;9.02;;
28934;SDS011;16044;52.726;-2.108;2024-01-30T00:26:02;30.35;;;8.68;;
28934;SDS011;16044;52.726;-2.108;2024-01-30T00:28:33;31.88;;;9.50;;
28934;SDS011;16044;52.726;-2.108;2024-01-30T00:31:03;29.98;;;8.68;;
28934;SDS011;16044;52.726;-2.108;2024-01-30T00:33:34;28.88;;;7.82;;
28934;SDS011;16044;52.726;-2.108;2024-01-30T00:36:07;29.80;;;7.75;;
28934;SDS011;16044;52.726;-2.108;2024-01-30T00:38:39;24.13;;;6.55;;
28934;SDS011;16044;52.726;-2.108;2024-01-30T00:41:09;25.38;;;6.28;;
28934;SDS011;16044;52.726;-2.108;2024-01-30T00:43:40;27.02;;;6.97;;
28934;SDS011;16044;52.726;-2.108;2024-01-30T00:46:10;22.13;;;5.10;;
28934;SDS011;16044;52.726;-2.108;2024-01-30T00:48:41;22.90;;;5.90;;
28934;SDS011;16044;52.726;-2.108;2024-01-30T00:51:14;19.90;;;5.20;;
28934;SDS011;16044;52.726;-2.108;2024-01-30T00:53:45;27.52;;;5.55;;
28934;SDS011;16044;52.726;-2.108;2024-01-30T00:56:15;18.30;;;4.97;;
28934;SDS011;16044;52.726;-2.108;2024-01-30T00:58:46;17.75;;;4.63;;
28934;SDS011;16044;52.726;-2.108;2024-01-30T01:01:16;20.02;;;4.60;;
28934;SDS011;16044;52.726;-2.108;2024-01-30T01:03:47;18.63;;;4.22;;
28934;SDS011;16044;52.726;-2.108;2024-01-30T01:06:20;21.30;;;4.03;;
28934;SDS011;16044;52.726;-2.108;2024-01-30T01:08:51;23.33;;;5.00;;
28934;SDS011;16044;52.726;-2.108;2024-01-30T01:11:21;18.48;;;4.38;;
28934;SDS011;16044;52.726;-2.108;2024-01-30T01:13:52;16.58;;;3.70;;
28934;SDS011;16044;52.726;-2.108;2024-01-30T01:16:22;21.08;;;4.43;;
28934;SDS011;16044;52.726;-2.108;2024-01-30T01:18:52;16.05;;;3.53;;
28934;SDS011;16044;52.726;-2.108;2024-01-30T01:21:25;14.45;;;3.33;;
28934;SDS011;16044;52.726;-2.108;2024-01-30T01:23:56;21.02;;;3.42;;
28934;SDS011;16044;52.726;-2.108;2024-01-30T01:26:26;12.40;;;3.25;;
28934;SDS011;16044;52.726;-2.108;2024-01-30T01:28:56;13.70;;;3.35;;
28934;SDS011;16044;52.726;-2.108;2024-01-30T01:31:27;14.07;;;3.20;;
28934;SDS011;16044;52.726;-2.108;2024-01-30T01:33:57;13.82;;;3.08;;
28934;SDS011;16044;52.726;-2.108;2024-01-30T01:36:30;14.38;;;3.60;;
28934;SDS011;16044;52.726;-2.108;2024-01-30T01:39:01;14.45;;;3.05;;
28934;SDS011;16044;52.726;-2.108;2024-01-30T01:41:32;12.32;;;2.70;;
28934;SDS011;16044;52.726;-2.108;2024-01-30T01:44:02;15.50;;;2.97;;
28934;SDS011;16044;52.726;-2.108;2024-01-30T01:46:33;12.32;;;3.00;;
28934;SDS011;16044;52.726;-2.108;2024-01-30T01:49:05;16.73;;;2.92;;
28934;SDS011;16044;52.726;-2.108;2024-01-30T01:51:38;16.05;;;3.13;;
28934;SDS011;16044;52.726;-2.108;2024-01-30T01:54:11;19.38;;;3.08;;
28934;SDS011;16044;52.726;-2.108;2024-01-30T01:56:44;13.63;;;2.90;;
28934;SDS011;16044;52.726;-2.108;2024-01-30T01:59:14;16.42;;;2.85;;
28934;SDS011;16044;52.726;-2.108;2024-01-30T02:01:45;13.63;;;2.90;;
28934;SDS011;16044;52.726;-2.108;2024-01-30T02:04:18;12.38;;;2.47;;
28934;SDS011;16044;52.726;-2.108;2024-01-30T02:06:51;10.90;;;2.88;;
28934;SDS011;16044;52.726;-2.108;2024-01-30T02:09:22;4.75;;;1.30;;
28934;SDS011;16044;52.726;-2.108;2024-01-30T02:11:52;2.25;;;0.90;;
28934;SDS011;16044;52.726;-2.108;2024-01-30T02:14:23;1.23;;;0.90;;
28934;SDS011;16044;52.726;-2.108;2024-01-30T02:16:56;1.13;;;0.70;;
28934;SDS011;16044;52.726;-2.108;2024-01-30T02:19:27;1.45;;;0.80;;
28934;SDS011;16044;52.726;-2.108;2024-01-30T02:22:00;1.13;;;1.00;;
28934;SDS011;16044;52.726;-2.108;2024-01-30T02:24:30;1.58;;;1.10;;
28934;SDS011;16044;52.726;-2.108;2024-01-30T02:27:01;2.72;;;1.27;;
28934;SDS011;16044;52.726;-2.108;2024-01-30T02:29:31;1.55;;;1.30;;
28934;SDS011;16044;52.726;-2.108;2024-01-30T02:32:02;2.08;;;1.50;;
28934;SDS011;16044;52.726;-2.108;2024-01-30T02:34:34;1.95;;;1.70;;
28934;SDS011;16044;52.726;-2.108;2024-01-30T02:37:07;2.20;;;1.90;;
28934;SDS011;16044;52.726;-2.108;2024-01-30T02:39:37;2.08;;;1.88;;
28934;SDS011;16044;52.726;-2.108;2024-01-30T02:42:08;3.15;;;1.92;;
28934;SDS011;16044;52.726;-2.108;2024-01-30T02:44:38;2.42;;;1.88;;
28934;SDS011;16044;52.726;-2.108;2024-01-30T02:47:08;2.67;;;2.08;;
28934;SDS011;16044;52.726;-2.108;2024-01-30T02:49:39;2.30;;;1.90;;
28934;SDS011;16044;52.726;-2.108;2024-01-30T02:52:12;2.10;;;1.90;;
28934;SDS011;16044;52.726;-2.108;2024-01-30T02:54:42;2.17;;;1.60;;
28934;SDS011;16044;52.726;-2.108;2024-01-30T02:57:13;2.15;;;1.67;;
28934;SDS011;16044;52.726;-2.108;2024-01-30T02:59:43;2.42;;;1.70;;
28934;SDS011;16044;52.726;-2.108;2024-01-30T03:02:13;2.40;;;2.00;;
28934;SDS011;16044;52.726;-2.108;2024-01-30T03:04:45;2.03;;;1.83;;
28934;SDS011;16044;52.726;-2.108;2024-01-30T03:07:18;1.98;;;1.60;;
28934;SDS011;16044;52.726;-2.108;2024-01-30T03:09:49;1.85;;;1.40;;
28934;SDS011;16044;52.726;-2.108;2024-01-30T03:12:19;2.92;;;1.50;;
28934;SDS011;16044;52.726;-2.108;2024-01-30T03:14:49;3.45;;;1.33;;
28934;SDS011;16044;52.726;-2.108;2024-01-30T03:17:20;1.70;;;1.20;;
28934;SDS011;16044;52.726;-2.108;2024-01-30T03:19:50;4.35;;;1.10;;
28934;SDS011;16044;52.726;-2.108;2024-01-30T03:22:24;1.45;;;1.00;;
28934;SDS011;16044;52.726;-2.108;2024-01-30T03:24:54;4.22;;;1.13;;
28934;SDS011;16044;52.726;-2.108;2024-01-30T03:27:25;5.32;;;1.13;;
28934;SDS011;16044;52.726;-2.108;2024-01-30T03:29:55;4.75;;;1.45;;
28934;SDS011;16044;52.726;-2.108;2024-01-30T03:32:26;1.45;;;1.00;;
28934;SDS011;16044;52.726;-2.108;2024-01-30T03:34:56;2.00;;;1.20;;
28934;SDS011;16044;52.726;-2.108;2024-01-30T03:37:30;1.33;;;0.98;;
28934;SDS011;16044;52.726;-2.108;2024-01-30T03:40:00;3.50;;;1.20;;
28934;SDS011;16044;52.726;-2.108;2024-01-30T03:42:32;3.58;;;1.30;;
28934;SDS011;16044;52.726;-2.108;2024-01-30T03:45:02;4.18;;;1.33;;
28934;SDS011;16044;52.726;-2.108;2024-01-30T03:47:34;5.57;;;1.30;;
28934;SDS011;16044;52.726;-2.108;2024-01-30T03:50:05;4.55;;;1.40;;
28934;SDS011;16044;52.726;-2.108;2024-01-30T03:52:39;6.47;;;1.77;;
28934;SDS011;16044;52.726;-2.108;2024-01-30T03:55:09;6.47;;;1.73;;
28934;SDS011;16044;52.726;-2.108;2024-01-30T03:57:39;6.70;;;1.80;;
28934;SDS011;16044;52.726;-2.108;2024-01-30T04:00:10;9.95;;;1.90;;
28934;SDS011;16044;52.726;-2.108;2024-01-30T04:02:42;7.45;;;1.83;;
28934;SDS011;16044;52.726;-2.108;2024-01-30T04:05:13;7.30;;;1.90;;
28934;SDS011;16044;52.726;-2.108;2024-01-30T04:07:46;12.10;;;1.75;;
28934;SDS011;16044;52.726;-2.108;2024-01-30T04:10:16;5.57;;;1.48;;
28934;SDS011;16044;52.726;-2.108;2024-01-30T04:12:47;4.28;;;1.33;;
28934;SDS011;16044;52.726;-2.108;2024-01-30T04:15:18;5.75;;;1.30;;
28934;SDS011;16044;52.726;-2.108;2024-01-30T04:17:48;5.50;;;1.25;;
28934;SDS011;16044;52.726;-2.108;2024-01-30T04:20:19;7.30;;;0.90;;
28934;SDS011;16044;52.726;-2.108;2024-01-30T04:22:52;2.83;;;1.10;;
28934;SDS011;16044;52.726;-2.108;2024-01-30T04:25:23;7.07;;;1.33;;
28934;SDS011;16044;52.726;-2.108;2024-01-30T04:27:53;3.58;;;0.95;;
28934;SDS011;16044;52.726;-2.108;2024-01-30T04:30:23;4.50;;;1.15;;
28934;SDS011;16044;52.726;-2.108;2024-01-30T04:32:54;5.80;;;1.13;;
28934;SDS011;16044;52.726;-2.108;2024-01-30T04:35:24;3.78;;;1.05;;
28934;SDS011;16044;52.726;-2.108;2024-01-30T04:37:57;5.10;;;1.10;;
28934;SDS011;16044;52.726;-2.108;2024-01-30T04:40:28;10.13;;;1.60;;
28934;SDS011;16044;52.726;-2.108;2024-01-30T04:42:58;4.75;;;1.17;;
28934;SDS011;16044;52.726;-2.108;2024-01-30T04:45:29;4.93;;;1.08;;
28934;SDS011;16044;52.726;-2.108;2024-01-30T04:47:59;5.55;;;1.15;;
28934;SDS011;16044;52.726;-2.108;2024-01-30T04:50:30;5.38;;;1.35;;
28934;SDS011;16044;52.726;-2.108;2024-01-30T04:53:03;5.28;;;1.15;;
28934;SDS011;16044;52.726;-2.108;2024-01-30T04:55:34;4.50;;;0.90;;
28934;SDS011;16044;52.726;-2.108;2024-01-30T04:58:05;4.55;;;1.00;;
28934;SDS011;16044;52.726;-2.108;2024-01-30T05:00:36;4.95;;;1.00;;
28934;SDS011;16044;52.726;-2.108;2024-01-30T05:03:06;6.57;;;0.80;;
28934;SDS011;16044;52.726;-2.108;2024-01-30T05:05:36;3.53;;;0.90;;
28934;SDS011;16044;52.726;-2.108;2024-01-30T05:08:09;5.82;;;1.25;;
28934;SDS011;16044;52.726;-2.108;2024-01-30T05:10:40;3.47;;;0.85;;
28934;SDS011;16044;52.726;-2.108;2024-01-30T05:13:11;5.60;;;0.75;;
28934;SDS011;16044;52.726;-2.108;2024-01-30T05:15:42;6.15;;;0.80;;
28934;SDS011;16044;52.726;-2.108;2024-01-30T05:18:13;3.53;;;0.70;;
28934;SDS011;16044;52.726;-2.108;2024-01-30T05:20:43;5.85;;;0.82;;
28934;SDS011;16044;52.726;-2.108;2024-01-30T05:23:17;6.78;;;1.00;;
28934;SDS011;16044;52.726;-2.108;2024-01-30T05:25:47;11.68;;;0.88;;
28934;SDS011;16044;52.726;-2.108;2024-01-30T05:28:18;7.75;;;0.93;;
28934;SDS011;16044;52.726;-2.108;2024-01-30T05:30:48;6.65;;;0.85;;
28934;SDS011;16044;52.726;-2.108;2024-01-30T05:33:19;5.13;;;0.70;;
28934;SDS011;16044;52.726;-2.108;2024-01-30T05:35:49;5.68;;;0.80;;
28934;SDS011;16044;52.726;-2.108;2024-01-30T05:38:23;4.53;;;0.75;;
28934;SDS011;16044;52.726;-2.108;2024-01-30T05:40:54;6.65;;;0.88;;
28934;SDS011;16044;52.726;-2.108;2024-01-30T05:43:24;7.28;;;1.15;;
28934;SDS011;16044;52.726;-2.108;2024-01-30T05:45:55;7.50;;;0.85;;
28934;SDS011;16044;52.726;-2.108;2024-01-30T05:48:25;6.80;;;0.85;;
28934;SDS011;16044;52.726;-2.108;2024-01-30T05:50:56;6.47;;;0.80;;
28934;SDS011;16044;52.726;-2.108;2024-01-30T05:53:29;6.57;;;1.15;;
28934;SDS011;16044;52.726;-2.108;2024-01-30T05:56:00;10.18;;;1.17;;
28934;SDS011;16044;52.726;-2.108;2024-01-30T05:58:31;4.95;;;0.80;;
28934;SDS011;16044;52.726;-2.108;2024-01-30T06:01:02;5.05;;;1.10;;
28934;SDS011;16044;52.726;-2.108;2024-01-30T06:03:32;4.78;;;0.85;;
28934;SDS011;16044;52.726;-2.108;2024-01-30T06:06:03;7.85;;;1.10;;
28934;SDS011;16044;52.726;-2.108;2024-01-30T06:08:36;7.57;;;0.90;;
28934;SDS011;16044;52.726;-2.108;2024-01-30T06:11:09;5.65;;;0.90;;
28934;SDS011;16044;52.726;-2.108;2024-01-30T06:13:40;8.23;;;1.08;;
28934;SDS011;16044;52.726;-2.108;2024-01-30T06:16:10;7.30;;;1.00;;
28934;SDS011;16044;52.726;-2.108;2024-01-30T06:18:41;10.75;;;1.10;;
28934;SDS011;16044;52.726;-2.108;2024-01-30T06:21:11;7.95;;;1.15;;
28934;SDS011;16044;52.726;-2.108;2024-01-30T06:23:44;4.95;;;0.95;;
28934;SDS011;16044;52.726;-2.108;2024-01-30T06:26:14;5.47;;;1.10;;
28934;SDS011;16044;52.726;-2.108;2024-01-30T06:28:45;5.32;;;0.80;;
28934;SDS011;16044;52.726;-2.108;2024-01-30T06:31:15;8.40;;;1.10;;
28934;SDS011;16044;52.726;-2.108;2024-01-30T06:33:46;4.65;;;0.90;;
28934;SDS011;16044;52.726;-2.108;2024-01-30T06:36:17;5.65;;;0.90;;
28934;SDS011;16044;52.726;-2.108;2024-01-30T06:38:50;5.53;;;0.93;;
28934;SDS011;16044;52.726;-2.108;2024-01-30T06:41:20;8.82;;;1.10;;
28934;SDS011;16044;52.726;-2.108;2024-01-30T06:43:50;5.40;;;0.85;;
28934;SDS011;16044;52.726;-2.108;2024-01-30T06:46:21;4.63;;;0.85;;
28934;SDS011;16044;52.726;-2.108;2024-01-30T06:48:52;6.88;;;1.13;;
28934;SDS011;16044;52.726;-2.108;2024-01-30T06:51:23;7.70;;;0.95;;
28934;SDS011;16044;52.726;-2.108;2024-01-30T06:53:56;8.10;;;1.13;;
28934;SDS011;16044;52.726;-2.108;2024-01-30T06:56:27;3.90;;;0.82;;
28934;SDS011;16044;52.726;-2.108;2024-01-30T06:58:58;5.68;;;0.88;;
28934;SDS011;16044;52.726;-2.108;2024-01-30T07:01:28;7.47;;;0.75;;
28934;SDS011;16044;52.726;-2.108;2024-01-30T07:03:59;8.65;;;1.23;;
28934;SDS011;16044;52.726;-2.108;2024-01-30T07:06:30;7.05;;;1.70;;
28934;SDS011;16044;52.726;-2.108;2024-01-30T07:09:03;5.80;;;1.10;;
28934;SDS011;16044;52.726;-2.108;2024-01-30T07:11:33;5.25;;;1.00;;
28934;SDS011;16044;52.726;-2.108;2024-01-30T07:14:03;8.02;;;1.30;;
28934;SDS011;16044;52.726;-2.108;2024-01-30T07:16:34;5.90;;;1.05;;
28934;SDS011;16044;52.726;-2.108;2024-01-30T07:19:04;7.25;;;1.40;;
28934;SDS011;16044;52.726;-2.108;2024-01-30T07:21:36;8.02;;;1.30;;
28934;SDS011;16044;52.726;-2.108;2024-01-30T07:24:10;5.32;;;1.15;;
28934;SDS011;16044;52.726;-2.108;2024-01-30T07:26:40;9.82;;;1.40;;
28934;SDS011;16044;52.726;-2.108;2024-01-30T07:29:10;9.02;;;1.30;;
28934;SDS011;16044;52.726;-2.108;2024-01-30T07:31:41;9.82;;;1.58;;
28934;SDS011;16044;52.726;-2.108;2024-01-30T07:34:11;6.40;;;1.42;;
28934;SDS011;16044;52.726;-2.108;2024-01-30T07:36:42;6.38;;;1.48;;
28934;SDS011;16044;52.726;-2.108;2024-01-30T07:39:16;7.22;;;1.40;;
28934;SDS011;16044;52.726;-2.108;2024-01-30T07:41:47;5.78;;;1.27;;
28934;SDS011;16044;52.726;-2.108;2024-01-30T07:44:17;11.07;;;1.77;;
28934;SDS011;16044;52.726;-2.108;2024-01-30T07:46:48;7.45;;;1.60;;
28934;SDS011;16044;52.726;-2.108;2024-01-30T07:49:18;10.50;;;1.50;;
28934;SDS011;16044;52.726;-2.108;2024-01-30T07:51:48;6.43;;;1.38;;
28934;SDS011;16044;52.726;-2.108;2024-01-30T07:54:22;8.73;;;1.65;;
28934;SDS011;16044;52.726;-2.108;2024-01-30T07:56:52;6.78;;;1.50;;
28934;SDS011;16044;52.726;-2.108;2024-01-30T07:59:22;9.88;;;1.60;;
28934;SDS011;16044;52.726;-2.108;2024-01-30T08:01:53;6.57;;;1.83;;
28934;SDS011;16044;52.726;-2.108;2024-01-30T08:04:23;10.35;;;1.60;;
28934;SDS011;16044;52.726;-2.108;2024-01-30T08:06:54;6.03;;;1.63;;
28934;SDS011;16044;52.726;-2.108;2024-01-30T08:09:27;6.88;;;1.30;;
28934;SDS011;16044;52.726;-2.108;2024-01-30T08:11:57;7.28;;;1.60;;
28934;SDS011;16044;52.726;-2.108;2024-01-30T08:14:28;9.07;;;1.52;;
28934;SDS011;16044;52.726;-2.108;2024-01-30T08:16:58;12.52;;;1.50;;
28934;SDS011;16044;52.726;-2.108;2024-01-30T08:19:29;11.35;;;1.60;;
28934;SDS011;16044;52.726;-2.108;2024-01-30T08:21:59;9.77;;;1.48;;
28934;SDS011;16044;52.726;-2.108;2024-01-30T08:24:32;9.82;;;1.83;;
28934;SDS011;16044;52.726;-2.108;2024-01-30T08:27:03;13.00;;;1.90;;
28934;SDS011;16044;52.726;-2.108;2024-01-30T08:29:36;12.18;;;1.90;;
28934;SDS011;16044;52.726;-2.108;2024-01-30T08:32:06;11.85;;;2.17;;
28934;SDS011;16044;52.726;-2.108;2024-01-30T08:34:37;10.82;;;2.15;;
28934;SDS011;16044;52.726;-2.108;2024-01-30T08:37:08;13.95;;;2.22;;
28934;SDS011;16044;52.726;-2.108;2024-01-30T08:39:41;11.38;;;2.22;;
28934;SDS011;16044;52.726;-2.108;2024-01-30T08:42:11;11.63;;;2.53;;
28934;SDS011;16044;52.726;-2.108;2024-01-30T08:44:42;9.88;;;2.80;;
28934;SDS011;16044;52.726;-2.108;2024-01-30T08:47:12;11.73;;;2.40;;
28934;SDS011;16044;52.726;-2.108;2024-01-30T08:49:43;10.25;;;2.40;;
28934;SDS011;16044;52.726;-2.108;2024-01-30T08:52:14;12.25;;;2.25;;
28934;SDS011;16044;52.726;-2.108;2024-01-30T08:54:47;7.63;;;1.80;;
28934;SDS011;16044;52.726;-2.108;2024-01-30T08:57:17;7.40;;;1.70;;
28934;SDS011;16044;52.726;-2.108;2024-01-30T08:59:48;7.75;;;1.45;;
28934;SDS011;16044;52.726;-2.108;2024-01-30T09:02:18;8.65;;;2.10;;
28934;SDS011;16044;52.726;-2.108;2024-01-30T09:04:49;4.97;;;1.35;;
28934;SDS011;16044;52.726;-2.108;2024-01-30T09:07:19;13.43;;;2.05;;
28934;SDS011;16044;52.726;-2.108;2024-01-30T09:09:52;10.13;;;1.30;;
28934;SDS011;16044;52.726;-2.108;2024-01-30T09:12:23;7.32;;;1.40;;
28934;SDS011;16044;52.726;-2.108;2024-01-30T09:14:53;11.18;;;1.67;;
28934;SDS011;16044;52.726;-2.108;2024-01-30T09:17:24;7.60;;;1.50;;
28934;SDS011;16044;52.726;-2.108;2024-01-30T09:19:54;9.13;;;1.30;;
28934;SDS011;16044;52.726;-2.108;2024-01-30T09:22:25;7.60;;;1.30;;
28934;SDS011;16044;52.726;-2.108;2024-01-30T09:24:58;8.75;;;1.10;;
28934;SDS011;16044;52.726;-2.108;2024-01-30T09:27:28;4.53;;;1.00;;
28934;SDS011;16044;52.726;-2.108;2024-01-30T09:29:59;7.38;;;1.20;;
28934;SDS011;16044;52.726;-2.108;2024-01-30T09:32:29;5.35;;;0.80;;
28934;SDS011;16044;52.726;-2.108;2024-01-30T09:35:00;7.82;;;0.90;;
28934;SDS011;16044;52.726;-2.108;2024-01-30T09:37:31;7.78;;;1.00;;
28934;SDS011;16044;52.726;-2.108;2024-01-30T09:40:04;5.18;;;1.05;;
28934;SDS011;16044;52.726;-2.108;2024-01-30T09:42:37;8.32;;;1.10;;
28934;SDS011;16044;52.726;-2.108;2024-01-30T09:45:07;8.45;;;1.00;;
28934;SDS011;16044;52.726;-2.108;2024-01-30T09:47:43;8.20;;;1.10;;
28934;SDS011;16044;52.726;-2.108;2024-01-30T09:50:15;5.93;;;1.10;;
28934;SDS011;16044;52.726;-2.108;2024-01-30T09:52:46;6.90;;;1.40;;
28934;SDS011;16044;52.726;-2.108;2024-01-30T09:55:20;7.70;;;1.77;;
28934;SDS011;16044;52.726;-2.108;2024-01-30T09:57:50;6.63;;;1.30;;
28934;SDS011;16044;52.726;-2.108;2024-01-30T10:00:21;10.00;;;1.20;;
28934;SDS011;16044;52.726;-2.108;2024-01-30T10:02:54;14.20;;;1.30;;
28934;SDS011;16044;52.726;-2.108;2024-01-30T10:05:26;7.32;;;1.20;;
28934;SDS011;16044;52.726;-2.108;2024-01-30T10:07:57;7.55;;;1.65;;
28934;SDS011;16044;52.726;-2.108;2024-01-30T10:10:30;9.95;;;2.42;;
28934;SDS011;16044;52.726;-2.108;2024-01-30T10:13:01;7.45;;;3.83;;
28934;SDS011;16044;52.726;-2.108;2024-01-30T10:15:32;9.15;;;4.30;;
28934;SDS011;16044;52.726;-2.108;2024-01-30T10:18:02;8.35;;;4.57;;
28934;SDS011;16044;52.726;-2.108;2024-01-30T10:20:33;10.63;;;4.82;;
28934;SDS011;16044;52.726;-2.108;2024-01-30T10:23:04;8.27;;;4.15;;
28934;SDS011;16044;52.726;-2.108;2024-01-30T10:25:37;12.23;;;5.55;;
28934;SDS011;16044;52.726;-2.108;2024-01-30T10:28:08;11.10;;;6.13;;
28934;SDS011;16044;52.726;-2.108;2024-01-30T10:30:39;17.65;;;8.05;;
28934;SDS011;16044;52.726;-2.108;2024-01-30T10:33:10;19.75;;;7.35;;
28934;SDS011;16044;52.726;-2.108;2024-01-30T10:35:40;18.05;;;7.80;;
28934;SDS011;16044;52.726;-2.108;2024-01-30T10:38:11;15.50;;;7.05;;
28934;SDS011;16044;52.726;-2.108;2024-01-30T10:40:48;21.13;;;6.20;;
28934;SDS011;16044;52.726;-2.108;2024-01-30T10:43:24;15.52;;;7.32;;
28934;SDS011;16044;52.726;-2.108;2024-01-30T10:46:04;10.07;;;6.57;;
28934;SDS011;16044;52.726;-2.108;2024-01-30T10:48:42;10.60;;;6.25;;
28934;SDS011;16044;52.726;-2.108;2024-01-30T10:51:16;11.70;;;7.13;;
28934;SDS011;16044;52.726;-2.108;2024-01-30T10:53:48;13.65;;;6.78;;
28934;SDS011;16044;52.726;-2.108;2024-01-30T10:56:22;16.13;;;6.07;;
28934;SDS011;16044;52.726;-2.108;2024-01-30T10:58:53;7.82;;;5.40;;
28934;SDS011;16044;52.726;-2.108;2024-01-30T11:01:24;13.75;;;5.40;;
28934;SDS011;16044;52.726;-2.108;2024-01-30T11:03:58;12.40;;;4.97;;
28934;SDS011;16044;52.726;-2.108;2024-01-30T11:06:28;9.80;;;4.82;;
28934;SDS011;16044;52.726;-2.108;2024-01-30T11:09:02;7.75;;;4.85;;
28934;SDS011;16044;52.726;-2.108;2024-01-30T11:11:50;10.82;;;4.70;;
28934;SDS011;16044;52.726;-2.108;2024-01-30T11:14:24;9.35;;;4.65;;
28934;SDS011;16044;52.726;-2.108;2024-01-30T11:16:57;9.63;;;4.00;;
28934;SDS011;16044;52.726;-2.108;2024-01-30T11:19:30;9.68;;;3.60;;
28934;SDS011;16044;52.726;-2.108;2024-01-30T11:22:02;7.68;;;3.42;;
28934;SDS011;16044;52.726;-2.108;2024-01-30T11:24:39;6.10;;;2.75;;
28934;SDS011;16044;52.726;-2.108;2024-01-30T11:27:13;9.95;;;3.00;;
28934;SDS011;16044;52.726;-2.108;2024-01-30T11:29:49;10.30;;;2.77;;
28934;SDS011;16044;52.726;-2.108;2024-01-30T11:32:22;8.80;;;3.22;;
28934;SDS011;16044;52.726;-2.108;2024-01-30T11:34:53;7.32;;;4.10;;
28934;SDS011;16044;52.726;-2.108;2024-01-30T11:37:25;9.65;;;5.15;;
28934;SDS011;16044;52.726;-2.108;2024-01-30T11:39:55;11.30;;;5.80;;
28934;SDS011;16044;52.726;-2.108;2024-01-30T11:42:29;28.13;;;15.88;;
28934;SDS011;16044;52.726;-2.108;2024-01-30T11:45:01;36.80;;;25.33;;
28934;SDS011;16044;52.726;-2.108;2024-01-30T11:47:34;27.05;;;19.02;;
28934;SDS011;16044;52.726;-2.108;2024-01-30T11:50:10;19.13;;;9.95;;
28934;SDS011;16044;52.726;-2.108;2024-01-30T11:52:41;17.40;;;10.82;;
28934;SDS011;16044;52.726;-2.108;2024-01-30T11:55:12;19.35;;;15.05;;
28934;SDS011;16044;52.726;-2.108;2024-01-30T11:57:46;21.08;;;13.27;;
28934;SDS011;16044;52.726;-2.108;2024-01-30T12:00:18;17.42;;;13.82;;
28934;SDS011;16044;52.726;-2.108;2024-01-30T12:02:49;17.30;;;9.57;;
28934;SDS011;16044;52.726;-2.108;2024-01-30T12:05:22;15.23;;;8.82;;
28934;SDS011;16044;52.726;-2.108;2024-01-30T12:07:54;11.52;;;6.60;;
28934;SDS011;16044;52.726;-2.108;2024-01-30T12:10:27;9.60;;;5.03;;
28934;SDS011;16044;52.726;-2.108;2024-01-30T12:13:00;12.55;;;8.48;;
28934;SDS011;16044;52.726;-2.108;2024-01-30T12:15:32;17.33;;;11.38;;
28934;SDS011;16044;52.726;-2.108;2024-01-30T12:18:05;18.73;;;11.95;;
28934;SDS011;16044;52.726;-2.108;2024-01-30T12:20:37;15.70;;;10.50;;
28934;SDS011;16044;52.726;-2.108;2024-01-30T12:23:07;10.93;;;7.13;;
28934;SDS011;16044;52.726;-2.108;2024-01-30T12:25:38;6.25;;;3.58;;
28934;SDS011;16044;52.726;-2.108;2024-01-30T12:28:11;5.93;;;3.38;;
28934;SDS011;16044;52.726;-2.108;2024-01-30T12:30:42;6.18;;;2.58;;
28934;SDS011;16044;52.726;-2.108;2024-01-30T12:33:15;7.10;;;2.70;;
28934;SDS011;16044;52.726;-2.108;2024-01-30T12:35:47;4.93;;;2.45;;
28934;SDS011;16044;52.726;-2.108;2024-01-30T12:38:28;6.57;;;2.70;;
28934;SDS011;16044;52.726;-2.108;2024-01-30T12:40:59;3.95;;;2.50;;
28934;SDS011;16044;52.726;-2.108;2024-01-30T12:43:32;6.90;;;2.33;;
28934;SDS011;16044;52.726;-2.108;2024-01-30T12:46:05;4.88;;;2.53;;
28934;SDS011;16044;52.726;-2.108;2024-01-30T12:48:36;3.90;;;2.33;;
28934;SDS011;16044;52.726;-2.108;2024-01-30T12:51:06;6.43;;;2.80;;
28934;SDS011;16044;52.726;-2.108;2024-01-30T12:53:39;4.90;;;2.70;;
28934;SDS011;16044;52.726;-2.108;2024-01-30T12:56:10;7.10;;;2.60;;
28934;SDS011;16044;52.726;-2.108;2024-01-30T12:58:44;6.88;;;2.72;;
28934;SDS011;16044;52.726;-2.108;2024-01-30T13:01:18;6.65;;;2.70;;
28934;SDS011;16044;52.726;-2.108;2024-01-30T13:03:48;5.03;;;2.28;;
28934;SDS011;16044;52.726;-2.108;2024-01-30T13:06:19;6.68;;;2.60;;
28934;SDS011;16044;52.726;-2.108;2024-01-30T13:08:49;5.30;;;2.40;;
28934;SDS011;16044;52.726;-2.108;2024-01-30T13:11:20;4.85;;;2.03;;
28934;SDS011;16044;52.726;-2.108;2024-01-30T13:13:54;5.90;;;1.80;;
28934;SDS011;16044;52.726;-2.108;2024-01-30T13:16:25;5.18;;;2.10;;
28934;SDS011;16044;52.726;-2.108;2024-01-30T13:18:55;5.53;;;2.10;;
28934;SDS011;16044;52.726;-2.108;2024-01-30T13:21:27;5.05;;;1.75;;
28934;SDS011;16044;52.726;-2.108;2024-01-30T13:23:58;4.93;;;1.85;;
28934;SDS011;16044;52.726;-2.108;2024-01-30T13:26:28;3.15;;;1.30;;
28934;SDS011;16044;52.726;-2.108;2024-01-30T13:29:02;5.13;;;1.85;;
28934;SDS011;16044;52.726;-2.108;2024-01-30T13:31:32;5.53;;;2.10;;
28934;SDS011;16044;52.726;-2.108;2024-01-30T13:34:03;5.45;;;1.40;;
28934;SDS011;16044;52.726;-2.108;2024-01-30T13:36:34;3.75;;;1.20;;
28934;SDS011;16044;52.726;-2.108;2024-01-30T13:39:05;3.67;;;1.40;;
28934;SDS011;16044;52.726;-2.108;2024-01-30T13:41:37;3.17;;;1.27;;
28934;SDS011;16044;52.726;-2.108;2024-01-30T13:44:10;4.28;;;1.65;;
28934;SDS011;16044;52.726;-2.108;2024-01-30T13:46:42;3.97;;;1.88;;
28934;SDS011;16044;52.726;-2.108;2024-01-30T13:49:13;6.28;;;2.08;;
28934;SDS011;16044;52.726;-2.108;2024-01-30T13:51:43;5.45;;;1.80;;
28934;SDS011;16044;52.726;-2.108;2024-01-30T13:54:14;12.45;;;2.30;;
28934;SDS011;16044;52.726;-2.108;2024-01-30T13:56:44;4.72;;;1.50;;
28934;SDS011;16044;52.726;-2.108;2024-01-30T13:59:17;8.75;;;1.50;;
28934;SDS011;16044;52.726;-2.108;2024-01-30T14:01:51;6.85;;;1.33;;
28934;SDS011;16044;52.726;-2.108;2024-01-30T14:04:22;3.75;;;1.10;;
28934;SDS011;16044;52.726;-2.108;2024-01-30T14:06:52;5.68;;;1.05;;
28934;SDS011;16044;52.726;-2.108;2024-01-30T14:09:30;4.90;;;1.00;;
28934;SDS011;16044;52.726;-2.108;2024-01-30T14:12:01;5.93;;;1.50;;
28934;SDS011;16044;52.726;-2.108;2024-01-30T14:14:34;8.43;;;1.63;;
28934;SDS011;16044;52.726;-2.108;2024-01-30T14:17:04;7.43;;;1.40;;
28934;SDS011;16044;52.726;-2.108;2024-01-30T14:19:35;9.15;;;1.88;;
28934;SDS011;16044;52.726;-2.108;2024-01-30T14:22:06;8.32;;;2.05;;
28934;SDS011;16044;52.726;-2.108;2024-01-30T14:24:36;6.68;;;1.85;;
28934;SDS011;16044;52.726;-2.108;2024-01-30T14:27:07;5.80;;;1.40;;
28934;SDS011;16044;52.726;-2.108;2024-01-30T14:29:40;5.47;;;1.35;;
28934;SDS011;16044;52.726;-2.108;2024-01-30T14:32:11;4.80;;;1.23;;
28934;SDS011;16044;52.726;-2.108;2024-01-30T14:34:41;7.45;;;1.23;;
28934;SDS011;16044;52.726;-2.108;2024-01-30T14:37:11;6.05;;;1.45;;
28934;SDS011;16044;52.726;-2.108;2024-01-30T14:39:42;5.28;;;1.60;;
28934;SDS011;16044;52.726;-2.108;2024-01-30T14:42:13;5.82;;;1.85;;
28934;SDS011;16044;52.726;-2.108;2024-01-30T14:44:46;9.45;;;1.90;;
28934;SDS011;16044;52.726;-2.108;2024-01-30T14:47:16;7.85;;;3.58;;
28934;SDS011;16044;52.726;-2.108;2024-01-30T14:49:47;15.30;;;4.78;;
28934;SDS011;16044;52.726;-2.108;2024-01-30T14:52:18;15.40;;;5.30;;
28934;SDS011;16044;52.726;-2.108;2024-01-30T14:54:49;8.50;;;2.30;;